Terminal Aerodrome Forecast
Issued by NWS Sterling, VA

Home | Current Version | Previous Version | Text Only | Print | Product List | Glossary On
Versions: 1 2 3 4 5 6 7 8 9 10 11 12 13 14 15 16 17 18 19 20 21 22
000
FTUS41 KLWX 220900 AAA
TAFBWI
TAF AMD
KBWI 220911Z 2209/2312 VRB03KT P6SM SCT040 SCT250
     FM221400 VRB03KT P6SM BKN035 BKN100
     FM222200 VRB03KT P6SM VCTS SCT030CB BKN080
     FM230200 10006KT P6SM OVC090
     FM231100 09009KT P6SM OVC020=

USA.gov is the U.S. government's official web portal to all federal, state and local government web resources and services.